Cape Express — HO5337 — position and weather

sailwx.info

Track history (hours):
 
Tides and Currents Weather Stations Pressure Air Temp Water Temp Dewpoint Dewpoint Depression Visibility Wind Speed Wind Dir Waves Ship Positions

Cape Express

Last reported at 2014-Aug-31 11:08 UTC. Time now 2014-Sep-01 07:32 UTC.
Position N 25°57' W 079°33'.

Length 29 m; draft 2.2 m.

Type: Cargo ship. MMSI: 370269000.

Date/timePositionNaut miles runAvg speedWind from/ knotsBaromVisibWave heightAir tempDewpointWater temp
2014-Aug-31 11:08N 25°57' W 079°33'5 8.8
2014-Aug-31 10:33N 25°59' W 079°38'9 8.6
2014-Aug-31 09:33N 26°01' W 079°48'9 8.7
2014-Aug-31 08:33N 26°03' W 079°57'9 8.9
2014-Aug-31 07:33N 26°06' W 080°06'2 2.3
2014-Aug-31 06:33N 26°04' W 080°08'0 0.0
2014-Aug-31 05:33N 26°04' W 080°08'0 0.0
2014-Aug-31 04:33N 26°04' W 080°08'0 0.0
2014-Aug-31 03:33N 26°04' W 080°08'0 0.0
2014-Aug-31 02:33N 26°04' W 080°08'0 0.0
2014-Aug-31 01:33N 26°04' W 080°08'0 0.0
2014-Aug-31 00:33N 26°04' W 080°08'3 3.4
2014-Aug-30 23:33N 26°05' W 080°04'9 9.0
2014-Aug-30 22:33N 26°01' W 079°55'1111.4
2014-Aug-30 21:33N 25°55' W 079°44'27 4.2
2014-Aug-30 15:03N 25°45' W 079°17'0 0.0
2014-Aug-30 14:32N 25°45' W 079°17'18 4.4
2014-Aug-30 10:22N 25°51' W 079°36'7 8.1
2014-Aug-30 09:33N 25°54' W 079°42'8 8.1
2014-Aug-30 08:33N 25°58' W 079°50'9 8.9
2014-Aug-30 07:33N 26°02' W 079°59'8 7.7
2014-Aug-30 06:33N 26°05' W 080°07'1 1.4
2014-Aug-30 05:33N 26°04' W 080°08'0 0.0
2014-Aug-30 04:33N 26°04' W 080°08'0 0.0
2014-Aug-30 03:33N 26°04' W 080°08'0 0.0
2014-Aug-30 02:33N 26°04' W 080°08'0 0.0
2014-Aug-30 01:33N 26°04' W 080°08'0 0.0
2014-Aug-30 00:33N 26°04' W 080°08'0 0.0
2014-Aug-29 23:33N 26°04' W 080°08'0 0.0
2014-Aug-29 22:33N 26°04' W 080°08'0 0.0
2014-Aug-29 21:33N 26°04' W 080°08'0 0.0
2014-Aug-29 20:33N 26°04' W 080°08'0 0.1
2014-Aug-29 19:32N 26°04' W 080°08'5 4.9
2014-Aug-29 18:33N 26°04' W 080°02'9 9.1
2014-Aug-29 17:33N 26°01' W 079°53'9 8.8
2014-Aug-29 16:33N 25°60' W 079°43'9 9.2
2014-Aug-29 15:32N 25°57' W 079°33'  
2014-Aug-21 20:11N 25°53' W 079°16'610.0
2014-Aug-21 19:33N 25°54' W 079°22'10 9.5
2014-Aug-21 18:33N 25°57' W 079°33'9 9.0
2014-Aug-21 17:33N 25°59' W 079°42'8 8.2
2014-Aug-21 16:33N 26°02' W 079°51'8 8.2
2014-Aug-21 15:33N 26°04' W 079°60'7 6.6
2014-Aug-21 14:33N 26°04' W 080°07'1 0.7
2014-Aug-21 13:33N 26°04' W 080°08'0 0.0
2014-Aug-21 12:33N 26°04' W 080°08'0 0.0
2014-Aug-21 11:33N 26°04' W 080°08'  
Track history (hours):
 
Tides and Currents Weather Stations Pressure Air Temp Water Temp Dewpoint Dewpoint Depression Visibility Wind Speed Wind Dir Waves Ship Positions

Cape Express

Last reported at 2014-Aug-31 11:08 UTC. Time now 2014-Sep-01 07:32 UTC.
Position N 25°57' W 079°33'.

Length 29 m; draft 2.2 m.

Type: Cargo ship. MMSI: 370269000.

Date/timePositionNaut miles runAvg speedWind from/ knotsBaromVisibWave heightAir tempDewpointWater temp
2014-Aug-31 11:08N 25°57' W 079°33'5 8.8
2014-Aug-31 10:33N 25°59' W 079°38'9 8.6
2014-Aug-31 09:33N 26°01' W 079°48'9 8.7
2014-Aug-31 08:33N 26°03' W 079°57'9 8.9
2014-Aug-31 07:33N 26°06' W 080°06'2 2.3
2014-Aug-31 06:33N 26°04' W 080°08'0 0.0
2014-Aug-31 05:33N 26°04' W 080°08'0 0.0
2014-Aug-31 04:33N 26°04' W 080°08'0 0.0
2014-Aug-31 03:33N 26°04' W 080°08'0 0.0
2014-Aug-31 02:33N 26°04' W 080°08'0 0.0
2014-Aug-31 01:33N 26°04' W 080°08'0 0.0
2014-Aug-31 00:33N 26°04' W 080°08'3 3.4
2014-Aug-30 23:33N 26°05' W 080°04'9 9.0
2014-Aug-30 22:33N 26°01' W 079°55'1111.4
2014-Aug-30 21:33N 25°55' W 079°44'27 4.2
2014-Aug-30 15:03N 25°45' W 079°17'0 0.0
2014-Aug-30 14:32N 25°45' W 079°17'18 4.4
2014-Aug-30 10:22N 25°51' W 079°36'7 8.1
2014-Aug-30 09:33N 25°54' W 079°42'8 8.1
2014-Aug-30 08:33N 25°58' W 079°50'9 8.9
2014-Aug-30 07:33N 26°02' W 079°59'8 7.7
2014-Aug-30 06:33N 26°05' W 080°07'1 1.4
2014-Aug-30 05:33N 26°04' W 080°08'0 0.0
2014-Aug-30 04:33N 26°04' W 080°08'0 0.0
2014-Aug-30 03:33N 26°04' W 080°08'0 0.0
2014-Aug-30 02:33N 26°04' W 080°08'0 0.0
2014-Aug-30 01:33N 26°04' W 080°08'0 0.0
2014-Aug-30 00:33N 26°04' W 080°08'0 0.0
2014-Aug-29 23:33N 26°04' W 080°08'0 0.0
2014-Aug-29 22:33N 26°04' W 080°08'0 0.0
2014-Aug-29 21:33N 26°04' W 080°08'0 0.0
2014-Aug-29 20:33N 26°04' W 080°08'0 0.1
2014-Aug-29 19:32N 26°04' W 080°08'5 4.9
2014-Aug-29 18:33N 26°04' W 080°02'9 9.1
2014-Aug-29 17:33N 26°01' W 079°53'9 8.8
2014-Aug-29 16:33N 25°60' W 079°43'9 9.2
2014-Aug-29 15:32N 25°57' W 079°33'  
2014-Aug-21 20:11N 25°53' W 079°16'610.0
2014-Aug-21 19:33N 25°54' W 079°22'10 9.5
2014-Aug-21 18:33N 25°57' W 079°33'9 9.0
2014-Aug-21 17:33N 25°59' W 079°42'8 8.2
2014-Aug-21 16:33N 26°02' W 079°51'8 8.2
2014-Aug-21 15:33N 26°04' W 079°60'7 6.6
2014-Aug-21 14:33N 26°04' W 080°07'1 0.7
2014-Aug-21 13:33N 26°04' W 080°08'0 0.0
2014-Aug-21 12:33N 26°04' W 080°08'0 0.0
2014-Aug-21 11:33N 26°04' W 080°08'  

Dump ship's entire track history